Holcombe, Wisconsin
Current Conditions -  °F | °C
As of 5:15 AM on Saturday 20 Dec 2014 (Local Time) from KRCX Reporting Station
Overcast Overcast  
Wind Chill: 20°   Ceiling: 1500
Heat Index: 27°   Visibility: 10mi
Dew Point: 23°   Wind: 6mph
Humidity: 88%   Direction: 160°SSE
Pressure: 30.2"   Gusts: NA
Location:  45.22°N, 91.12°W
Report Text: KRCX 201115Z AUTO 16005KT 10SM OVC015 M03/M05 A3020 RMK AO2 T10301048
Loading
Personal Weather Stations






























Interactive Weather Map New forecast layout! Learn more

10-Day Weather Forecast

Advertisements
Track Severe Weather on mobile